sensor_id;sensor_type;location;lat;lon;timestamp;P1;durP1;ratioP1;P2;durP2;ratioP2
22660;SDS011;11497;52.222;21.246;2023-11-21T00:00:55;33.25;;;18.75;;
22660;SDS011;11497;52.222;21.246;2023-11-21T00:03:40;35.55;;;20.25;;
22660;SDS011;11497;52.222;21.246;2023-11-21T00:06:08;32.60;;;17.85;;
22660;SDS011;11497;52.222;21.246;2023-11-21T00:08:37;32.85;;;19.17;;
22660;SDS011;11497;52.222;21.246;2023-11-21T00:11:04;33.63;;;19.15;;
22660;SDS011;11497;52.222;21.246;2023-11-21T00:13:33;29.73;;;16.80;;
22660;SDS011;11497;52.222;21.246;2023-11-21T00:16:00;32.17;;;18.67;;
22660;SDS011;11497;52.222;21.246;2023-11-21T00:18:29;29.52;;;17.60;;
22660;SDS011;11497;52.222;21.246;2023-11-21T00:20:56;33.53;;;19.05;;
22660;SDS011;11497;52.222;21.246;2023-11-21T00:23:26;34.05;;;20.45;;
22660;SDS011;11497;52.222;21.246;2023-11-21T00:25:53;33.67;;;19.23;;
22660;SDS011;11497;52.222;21.246;2023-11-21T00:28:22;32.22;;;19.30;;
22660;SDS011;11497;52.222;21.246;2023-11-21T00:30:49;36.28;;;19.73;;
22660;SDS011;11497;52.222;21.246;2023-11-21T00:33:17;35.95;;;20.25;;
22660;SDS011;11497;52.222;21.246;2023-11-21T00:35:45;33.80;;;19.35;;
22660;SDS011;11497;52.222;21.246;2023-11-21T00:38:13;39.67;;;19.67;;
22660;SDS011;11497;52.222;21.246;2023-11-21T00:40:41;36.17;;;19.77;;
22660;SDS011;11497;52.222;21.246;2023-11-21T00:43:09;34.63;;;19.20;;
22660;SDS011;11497;52.222;21.246;2023-11-21T00:45:37;34.83;;;19.92;;
22660;SDS011;11497;52.222;21.246;2023-11-21T00:48:07;35.95;;;20.98;;
22660;SDS011;11497;52.222;21.246;2023-11-21T00:50:35;39.05;;;20.45;;
22660;SDS011;11497;52.222;21.246;2023-11-21T00:53:03;39.55;;;20.92;;
22660;SDS011;11497;52.222;21.246;2023-11-21T00:55:30;36.15;;;20.73;;
22660;SDS011;11497;52.222;21.246;2023-11-21T00:57:59;32.65;;;18.20;;
22660;SDS011;11497;52.222;21.246;2023-11-21T01:00:26;33.38;;;18.50;;
22660;SDS011;11497;52.222;21.246;2023-11-21T01:02:54;31.35;;;19.45;;
22660;SDS011;11497;52.222;21.246;2023-11-21T01:05:23;31.42;;;18.95;;
22660;SDS011;11497;52.222;21.246;2023-11-21T01:07:51;34.80;;;19.80;;
22660;SDS011;11497;52.222;21.246;2023-11-21T01:10:20;36.10;;;19.38;;
22660;SDS011;11497;52.222;21.246;2023-11-21T01:12:48;36.47;;;21.13;;
22660;SDS011;11497;52.222;21.246;2023-11-21T01:15:16;35.45;;;20.02;;
22660;SDS011;11497;52.222;21.246;2023-11-21T01:17:44;38.17;;;21.33;;
22660;SDS011;11497;52.222;21.246;2023-11-21T01:20:12;36.55;;;20.55;;
22660;SDS011;11497;52.222;21.246;2023-11-21T01:22:41;36.63;;;20.25;;
22660;SDS011;11497;52.222;21.246;2023-11-21T01:25:09;37.63;;;19.98;;
22660;SDS011;11497;52.222;21.246;2023-11-21T01:27:38;33.45;;;19.10;;
22660;SDS011;11497;52.222;21.246;2023-11-21T01:30:05;35.50;;;20.63;;
22660;SDS011;11497;52.222;21.246;2023-11-21T01:32:36;38.75;;;20.20;;
22660;SDS011;11497;52.222;21.246;2023-11-21T01:35:04;35.78;;;20.70;;
22660;SDS011;11497;52.222;21.246;2023-11-21T01:37:33;33.75;;;19.33;;
22660;SDS011;11497;52.222;21.246;2023-11-21T01:40:01;37.88;;;20.40;;
22660;SDS011;11497;52.222;21.246;2023-11-21T01:42:32;36.28;;;20.63;;
22660;SDS011;11497;52.222;21.246;2023-11-21T01:45:00;34.13;;;20.50;;
22660;SDS011;11497;52.222;21.246;2023-11-21T01:47:32;35.72;;;21.00;;
22660;SDS011;11497;52.222;21.246;2023-11-21T01:50:01;38.17;;;19.98;;
22660;SDS011;11497;52.222;21.246;2023-11-21T01:52:31;36.05;;;20.38;;
22660;SDS011;11497;52.222;21.246;2023-11-21T01:55:00;34.25;;;19.73;;
22660;SDS011;11497;52.222;21.246;2023-11-21T01:57:29;37.58;;;20.98;;
22660;SDS011;11497;52.222;21.246;2023-11-21T01:59:57;35.00;;;20.13;;
22660;SDS011;11497;52.222;21.246;2023-11-21T02:02:38;33.63;;;19.33;;
22660;SDS011;11497;52.222;21.246;2023-11-21T02:05:06;34.95;;;19.42;;
22660;SDS011;11497;52.222;21.246;2023-11-21T02:07:35;33.85;;;19.63;;
22660;SDS011;11497;52.222;21.246;2023-11-21T02:10:04;34.78;;;19.98;;
22660;SDS011;11497;52.222;21.246;2023-11-21T02:12:34;37.17;;;19.98;;
22660;SDS011;11497;52.222;21.246;2023-11-21T02:15:02;33.97;;;19.58;;
22660;SDS011;11497;52.222;21.246;2023-11-21T02:17:42;36.75;;;20.10;;
22660;SDS011;11497;52.222;21.246;2023-11-21T02:20:11;30.25;;;18.10;;
22660;SDS011;11497;52.222;21.246;2023-11-21T02:22:51;33.28;;;18.30;;
22660;SDS011;11497;52.222;21.246;2023-11-21T02:25:28;34.17;;;19.70;;
22660;SDS011;11497;52.222;21.246;2023-11-21T02:27:59;33.80;;;19.50;;
22660;SDS011;11497;52.222;21.246;2023-11-21T02:30:27;33.75;;;19.02;;
22660;SDS011;11497;52.222;21.246;2023-11-21T02:32:59;30.67;;;17.80;;
22660;SDS011;11497;52.222;21.246;2023-11-21T02:35:28;34.05;;;18.92;;
22660;SDS011;11497;52.222;21.246;2023-11-21T02:37:59;34.50;;;19.65;;
22660;SDS011;11497;52.222;21.246;2023-11-21T02:40:27;34.17;;;20.25;;
22660;SDS011;11497;52.222;21.246;2023-11-21T02:42:56;34.95;;;19.40;;
22660;SDS011;11497;52.222;21.246;2023-11-21T02:45:26;35.10;;;20.15;;
22660;SDS011;11497;52.222;21.246;2023-11-21T02:47:54;34.00;;;19.83;;
22660;SDS011;11497;52.222;21.246;2023-11-21T02:50:25;35.47;;;19.95;;
22660;SDS011;11497;52.222;21.246;2023-11-21T02:52:54;39.95;;;21.92;;
22660;SDS011;11497;52.222;21.246;2023-11-21T02:55:24;39.55;;;22.33;;
22660;SDS011;11497;52.222;21.246;2023-11-21T02:57:53;37.95;;;21.13;;
22660;SDS011;11497;52.222;21.246;2023-11-21T03:00:23;38.50;;;21.55;;
22660;SDS011;11497;52.222;21.246;2023-11-21T03:02:53;35.95;;;20.88;;
22660;SDS011;11497;52.222;21.246;2023-11-21T03:05:22;33.92;;;19.52;;
22660;SDS011;11497;52.222;21.246;2023-11-21T03:07:50;38.25;;;20.65;;
22660;SDS011;11497;52.222;21.246;2023-11-21T03:10:18;43.15;;;20.95;;
22660;SDS011;11497;52.222;21.246;2023-11-21T03:12:46;35.97;;;19.63;;
22660;SDS011;11497;52.222;21.246;2023-11-21T03:15:14;37.67;;;20.02;;
22660;SDS011;11497;52.222;21.246;2023-11-21T03:17:42;37.47;;;20.67;;
22660;SDS011;11497;52.222;21.246;2023-11-21T03:20:10;38.05;;;21.15;;
22660;SDS011;11497;52.222;21.246;2023-11-21T03:22:40;37.72;;;20.55;;
22660;SDS011;11497;52.222;21.246;2023-11-21T03:25:08;41.80;;;21.25;;
22660;SDS011;11497;52.222;21.246;2023-11-21T03:27:38;37.10;;;21.15;;
22660;SDS011;11497;52.222;21.246;2023-11-21T03:30:07;34.45;;;18.35;;
22660;SDS011;11497;52.222;21.246;2023-11-21T03:32:36;37.28;;;20.25;;
22660;SDS011;11497;52.222;21.246;2023-11-21T03:35:05;35.95;;;19.48;;
22660;SDS011;11497;52.222;21.246;2023-11-21T03:37:34;34.45;;;19.10;;
22660;SDS011;11497;52.222;21.246;2023-11-21T03:40:02;36.95;;;18.60;;
22660;SDS011;11497;52.222;21.246;2023-11-21T03:42:31;35.03;;;17.90;;
22660;SDS011;11497;52.222;21.246;2023-11-21T03:44:59;33.17;;;17.55;;
22660;SDS011;11497;52.222;21.246;2023-11-21T03:47:27;34.05;;;18.35;;
22660;SDS011;11497;52.222;21.246;2023-11-21T03:49:55;32.03;;;18.75;;
22660;SDS011;11497;52.222;21.246;2023-11-21T03:52:24;40.35;;;19.52;;
22660;SDS011;11497;52.222;21.246;2023-11-21T03:54:52;30.33;;;17.75;;
22660;SDS011;11497;52.222;21.246;2023-11-21T03:57:20;33.30;;;18.48;;
22660;SDS011;11497;52.222;21.246;2023-11-21T03:59:48;34.10;;;19.13;;
22660;SDS011;11497;52.222;21.246;2023-11-21T04:02:16;36.70;;;20.15;;
22660;SDS011;11497;52.222;21.246;2023-11-21T04:04:44;37.70;;;20.73;;
22660;SDS011;11497;52.222;21.246;2023-11-21T04:07:12;38.42;;;20.80;;
22660;SDS011;11497;52.222;21.246;2023-11-21T04:09:40;37.80;;;20.40;;
22660;SDS011;11497;52.222;21.246;2023-11-21T04:12:08;38.92;;;20.95;;
22660;SDS011;11497;52.222;21.246;2023-11-21T04:14:36;38.22;;;19.77;;
22660;SDS011;11497;52.222;21.246;2023-11-21T04:17:05;33.08;;;18.98;;
22660;SDS011;11497;52.222;21.246;2023-11-21T04:19:33;36.15;;;18.27;;
22660;SDS011;11497;52.222;21.246;2023-11-21T04:22:01;33.88;;;19.15;;
22660;SDS011;11497;52.222;21.246;2023-11-21T04:24:29;34.47;;;17.55;;
22660;SDS011;11497;52.222;21.246;2023-11-21T04:26:57;34.38;;;17.52;;
22660;SDS011;11497;52.222;21.246;2023-11-21T04:29:24;32.63;;;17.20;;
22660;SDS011;11497;52.222;21.246;2023-11-21T04:31:52;36.67;;;19.55;;
22660;SDS011;11497;52.222;21.246;2023-11-21T04:34:20;32.97;;;17.85;;
22660;SDS011;11497;52.222;21.246;2023-11-21T04:36:49;32.95;;;17.92;;
22660;SDS011;11497;52.222;21.246;2023-11-21T04:39:17;37.33;;;19.23;;
22660;SDS011;11497;52.222;21.246;2023-11-21T04:41:45;32.25;;;18.00;;
22660;SDS011;11497;52.222;21.246;2023-11-21T04:44:12;37.88;;;18.70;;
22660;SDS011;11497;52.222;21.246;2023-11-21T04:46:40;33.13;;;18.05;;
22660;SDS011;11497;52.222;21.246;2023-11-21T04:49:08;35.10;;;18.85;;
22660;SDS011;11497;52.222;21.246;2023-11-21T04:51:37;32.05;;;16.70;;
22660;SDS011;11497;52.222;21.246;2023-11-21T04:54:05;27.85;;;16.15;;
22660;SDS011;11497;52.222;21.246;2023-11-21T04:56:33;28.38;;;15.45;;
22660;SDS011;11497;52.222;21.246;2023-11-21T04:59:01;27.67;;;15.75;;
22660;SDS011;11497;52.222;21.246;2023-11-21T05:01:29;27.00;;;15.70;;
22660;SDS011;11497;52.222;21.246;2023-11-21T05:03:57;29.23;;;15.63;;
22660;SDS011;11497;52.222;21.246;2023-11-21T05:06:25;29.17;;;16.13;;
22660;SDS011;11497;52.222;21.246;2023-11-21T05:08:53;30.10;;;15.75;;
22660;SDS011;11497;52.222;21.246;2023-11-21T05:11:28;29.88;;;17.02;;
22660;SDS011;11497;52.222;21.246;2023-11-21T05:13:55;31.00;;;16.73;;
22660;SDS011;11497;52.222;21.246;2023-11-21T05:16:25;28.95;;;15.15;;
22660;SDS011;11497;52.222;21.246;2023-11-21T05:18:57;27.25;;;15.30;;
22660;SDS011;11497;52.222;21.246;2023-11-21T05:21:27;28.83;;;16.48;;
22660;SDS011;11497;52.222;21.246;2023-11-21T05:23:59;28.42;;;16.10;;
22660;SDS011;11497;52.222;21.246;2023-11-21T05:26:27;28.70;;;15.65;;
22660;SDS011;11497;52.222;21.246;2023-11-21T05:28:55;29.25;;;15.63;;
22660;SDS011;11497;52.222;21.246;2023-11-21T05:31:23;26.35;;;14.70;;
22660;SDS011;11497;52.222;21.246;2023-11-21T05:33:51;23.40;;;14.43;;
22660;SDS011;11497;52.222;21.246;2023-11-21T05:36:20;25.35;;;13.75;;
22660;SDS011;11497;52.222;21.246;2023-11-21T05:38:47;24.20;;;13.57;;
22660;SDS011;11497;52.222;21.246;2023-11-21T05:41:15;23.63;;;13.10;;
22660;SDS011;11497;52.222;21.246;2023-11-21T05:43:43;23.80;;;13.50;;
22660;SDS011;11497;52.222;21.246;2023-11-21T05:46:11;23.92;;;13.35;;
22660;SDS011;11497;52.222;21.246;2023-11-21T05:48:40;26.50;;;14.45;;
22660;SDS011;11497;52.222;21.246;2023-11-21T05:51:09;24.13;;;13.60;;
22660;SDS011;11497;52.222;21.246;2023-11-21T05:53:39;25.65;;;12.85;;
22660;SDS011;11497;52.222;21.246;2023-11-21T05:56:07;19.65;;;12.38;;
22660;SDS011;11497;52.222;21.246;2023-11-21T05:58:35;22.77;;;13.02;;
22660;SDS011;11497;52.222;21.246;2023-11-21T06:01:05;28.00;;;13.70;;
22660;SDS011;11497;52.222;21.246;2023-11-21T06:03:35;20.30;;;12.65;;
22660;SDS011;11497;52.222;21.246;2023-11-21T06:06:06;23.10;;;12.65;;
22660;SDS011;11497;52.222;21.246;2023-11-21T06:08:34;22.52;;;12.40;;
22660;SDS011;11497;52.222;21.246;2023-11-21T06:11:02;22.85;;;12.23;;
22660;SDS011;11497;52.222;21.246;2023-11-21T06:13:30;24.10;;;13.43;;
22660;SDS011;11497;52.222;21.246;2023-11-21T06:15:58;19.75;;;12.07;;
22660;SDS011;11497;52.222;21.246;2023-11-21T06:18:27;20.10;;;11.63;;
22660;SDS011;11497;52.222;21.246;2023-11-21T06:20:55;20.65;;;12.18;;
22660;SDS011;11497;52.222;21.246;2023-11-21T06:23:22;22.05;;;12.15;;
22660;SDS011;11497;52.222;21.246;2023-11-21T06:25:50;20.48;;;12.80;;
22660;SDS011;11497;52.222;21.246;2023-11-21T06:28:19;21.75;;;13.30;;
22660;SDS011;11497;52.222;21.246;2023-11-21T06:30:47;25.05;;;13.35;;
22660;SDS011;11497;52.222;21.246;2023-11-21T06:33:17;24.25;;;13.50;;
22660;SDS011;11497;52.222;21.246;2023-11-21T06:35:45;24.60;;;13.43;;
22660;SDS011;11497;52.222;21.246;2023-11-21T06:38:13;25.70;;;13.38;;
22660;SDS011;11497;52.222;21.246;2023-11-21T06:40:41;25.88;;;13.95;;
22660;SDS011;11497;52.222;21.246;2023-11-21T06:43:09;30.05;;;17.65;;
22660;SDS011;11497;52.222;21.246;2023-11-21T06:45:37;27.50;;;17.38;;
22660;SDS011;11497;52.222;21.246;2023-11-21T06:48:05;23.83;;;14.07;;
22660;SDS011;11497;52.222;21.246;2023-11-21T06:50:33;27.65;;;14.55;;
22660;SDS011;11497;52.222;21.246;2023-11-21T06:53:01;28.75;;;14.43;;
22660;SDS011;11497;52.222;21.246;2023-11-21T06:55:31;26.25;;;14.32;;
22660;SDS011;11497;52.222;21.246;2023-11-21T06:57:59;26.58;;;14.68;;
22660;SDS011;11497;52.222;21.246;2023-11-21T07:00:27;29.20;;;15.13;;
22660;SDS011;11497;52.222;21.246;2023-11-21T07:02:56;22.70;;;13.35;;
22660;SDS011;11497;52.222;21.246;2023-11-21T07:05:24;32.97;;;15.88;;
22660;SDS011;11497;52.222;21.246;2023-11-21T07:07:52;30.63;;;15.75;;
22660;SDS011;11497;52.222;21.246;2023-11-21T07:10:21;29.48;;;17.02;;
22660;SDS011;11497;52.222;21.246;2023-11-21T07:12:49;29.38;;;15.90;;
22660;SDS011;11497;52.222;21.246;2023-11-21T07:15:18;30.40;;;16.70;;
22660;SDS011;11497;52.222;21.246;2023-11-21T07:17:46;30.00;;;15.90;;
22660;SDS011;11497;52.222;21.246;2023-11-21T07:20:16;30.08;;;17.00;;
22660;SDS011;11497;52.222;21.246;2023-11-21T07:22:44;29.75;;;17.50;;
22660;SDS011;11497;52.222;21.246;2023-11-21T07:25:12;33.08;;;17.15;;
22660;SDS011;11497;52.222;21.246;2023-11-21T07:27:40;34.15;;;17.52;;
22660;SDS011;11497;52.222;21.246;2023-11-21T07:30:08;60.80;;;29.05;;
22660;SDS011;11497;52.222;21.246;2023-11-21T07:32:37;33.83;;;18.42;;
22660;SDS011;11497;52.222;21.246;2023-11-21T07:35:07;36.25;;;19.35;;
22660;SDS011;11497;52.222;21.246;2023-11-21T07:37:35;33.08;;;17.05;;
22660;SDS011;11497;52.222;21.246;2023-11-21T07:40:04;30.98;;;16.17;;
22660;SDS011;11497;52.222;21.246;2023-11-21T07:42:35;29.02;;;15.65;;
22660;SDS011;11497;52.222;21.246;2023-11-21T07:45:05;29.42;;;16.23;;
22660;SDS011;11497;52.222;21.246;2023-11-21T07:47:34;31.63;;;16.38;;
22660;SDS011;11497;52.222;21.246;2023-11-21T07:50:02;35.17;;;21.05;;
22660;SDS011;11497;52.222;21.246;2023-11-21T07:52:31;29.80;;;16.52;;
22660;SDS011;11497;52.222;21.246;2023-11-21T07:54:59;29.27;;;16.45;;
22660;SDS011;11497;52.222;21.246;2023-11-21T07:57:28;32.47;;;17.13;;
22660;SDS011;11497;52.222;21.246;2023-11-21T07:59:56;32.53;;;16.75;;
22660;SDS011;11497;52.222;21.246;2023-11-21T08:02:24;30.92;;;17.08;;
22660;SDS011;11497;52.222;21.246;2023-11-21T08:04:53;28.75;;;16.13;;
22660;SDS011;11497;52.222;21.246;2023-11-21T08:07:24;34.85;;;17.50;;
22660;SDS011;11497;52.222;21.246;2023-11-21T08:09:52;30.83;;;17.95;;
22660;SDS011;11497;52.222;21.246;2023-11-21T08:12:20;31.77;;;17.67;;
22660;SDS011;11497;52.222;21.246;2023-11-21T08:14:48;38.20;;;20.88;;
22660;SDS011;11497;52.222;21.246;2023-11-21T08:17:17;31.77;;;16.98;;
22660;SDS011;11497;52.222;21.246;2023-11-21T08:19:47;38.38;;;18.50;;
22660;SDS011;11497;52.222;21.246;2023-11-21T08:22:16;32.92;;;17.48;;
22660;SDS011;11497;52.222;21.246;2023-11-21T08:24:45;29.77;;;17.00;;
22660;SDS011;11497;52.222;21.246;2023-11-21T08:27:13;33.00;;;17.38;;
22660;SDS011;11497;52.222;21.246;2023-11-21T08:29:43;33.22;;;18.92;;
22660;SDS011;11497;52.222;21.246;2023-11-21T08:32:11;27.15;;;15.75;;
22660;SDS011;11497;52.222;21.246;2023-11-21T08:34:39;31.42;;;16.63;;
22660;SDS011;11497;52.222;21.246;2023-11-21T08:37:10;28.98;;;16.45;;
22660;SDS011;11497;52.222;21.246;2023-11-21T08:39:39;28.08;;;15.32;;
22660;SDS011;11497;52.222;21.246;2023-11-21T08:42:08;33.55;;;17.92;;
22660;SDS011;11497;52.222;21.246;2023-11-21T08:44:36;32.22;;;18.77;;
22660;SDS011;11497;52.222;21.246;2023-11-21T08:47:06;36.70;;;19.80;;
22660;SDS011;11497;52.222;21.246;2023-11-21T08:49:35;36.00;;;18.23;;
22660;SDS011;11497;52.222;21.246;2023-11-21T08:52:03;31.98;;;17.25;;
22660;SDS011;11497;52.222;21.246;2023-11-21T08:54:32;31.42;;;17.73;;
22660;SDS011;11497;52.222;21.246;2023-11-21T08:57:00;31.92;;;17.80;;
22660;SDS011;11497;52.222;21.246;2023-11-21T08:59:29;33.05;;;17.85;;
22660;SDS011;11497;52.222;21.246;2023-11-21T09:01:56;29.30;;;16.60;;
22660;SDS011;11497;52.222;21.246;2023-11-21T09:04:24;31.67;;;18.80;;
22660;SDS011;11497;52.222;21.246;2023-11-21T09:06:52;33.78;;;17.83;;
22660;SDS011;11497;52.222;21.246;2023-11-21T09:09:20;29.65;;;17.48;;
22660;SDS011;11497;52.222;21.246;2023-11-21T09:11:48;33.80;;;18.85;;
22660;SDS011;11497;52.222;21.246;2023-11-21T09:14:16;39.90;;;20.92;;
22660;SDS011;11497;52.222;21.246;2023-11-21T09:16:44;35.03;;;21.08;;
22660;SDS011;11497;52.222;21.246;2023-11-21T09:19:12;40.78;;;21.65;;
22660;SDS011;11497;52.222;21.246;2023-11-21T09:21:41;42.22;;;23.77;;
22660;SDS011;11497;52.222;21.246;2023-11-21T09:24:09;42.65;;;22.95;;
22660;SDS011;11497;52.222;21.246;2023-11-21T09:26:36;41.65;;;23.35;;
22660;SDS011;11497;52.222;21.246;2023-11-21T09:29:05;41.92;;;23.95;;
22660;SDS011;11497;52.222;21.246;2023-11-21T09:31:35;33.90;;;19.42;;
22660;SDS011;11497;52.222;21.246;2023-11-21T09:34:03;35.28;;;19.75;;
22660;SDS011;11497;52.222;21.246;2023-11-21T09:36:33;36.30;;;20.00;;
22660;SDS011;11497;52.222;21.246;2023-11-21T09:39:01;32.97;;;18.63;;
22660;SDS011;11497;52.222;21.246;2023-11-21T09:41:46;31.50;;;16.77;;
22660;SDS011;11497;52.222;21.246;2023-11-21T09:44:18;29.45;;;17.38;;
22660;SDS011;11497;52.222;21.246;2023-11-21T09:46:50;35.92;;;19.15;;
22660;SDS011;11497;52.222;21.246;2023-11-21T09:49:22;31.45;;;18.48;;
22660;SDS011;11497;52.222;21.246;2023-11-21T09:51:54;36.97;;;18.98;;
22660;SDS011;11497;52.222;21.246;2023-11-21T09:54:26;35.70;;;19.63;;
22660;SDS011;11497;52.222;21.246;2023-11-21T09:56:55;31.65;;;18.13;;
22660;SDS011;11497;52.222;21.246;2023-11-21T09:59:25;27.52;;;16.33;;
22660;SDS011;11497;52.222;21.246;2023-11-21T10:01:57;32.22;;;16.58;;
22660;SDS011;11497;52.222;21.246;2023-11-21T10:04:25;28.23;;;16.35;;
22660;SDS011;11497;52.222;21.246;2023-11-21T10:06:55;28.67;;;15.50;;
22660;SDS011;11497;52.222;21.246;2023-11-21T10:09:23;26.27;;;15.25;;
22660;SDS011;11497;52.222;21.246;2023-11-21T10:11:53;27.95;;;16.33;;
22660;SDS011;11497;52.222;21.246;2023-11-21T10:14:25;33.45;;;17.77;;
22660;SDS011;11497;52.222;21.246;2023-11-21T10:16:55;32.70;;;17.88;;
22660;SDS011;11497;52.222;21.246;2023-11-21T10:19:25;30.02;;;16.02;;
22660;SDS011;11497;52.222;21.246;2023-11-21T10:21:54;30.42;;;17.85;;
22660;SDS011;11497;52.222;21.246;2023-11-21T10:24:24;32.67;;;18.02;;
22660;SDS011;11497;52.222;21.246;2023-11-21T10:26:54;34.05;;;20.67;;
22660;SDS011;11497;52.222;21.246;2023-11-21T10:29:22;31.42;;;17.52;;
22660;SDS011;11497;52.222;21.246;2023-11-21T10:31:50;33.28;;;18.75;;
22660;SDS011;11497;52.222;21.246;2023-11-21T10:34:20;33.50;;;18.15;;
22660;SDS011;11497;52.222;21.246;2023-11-21T10:36:49;30.00;;;17.27;;
22660;SDS011;11497;52.222;21.246;2023-11-21T10:39:17;32.22;;;17.42;;
22660;SDS011;11497;52.222;21.246;2023-11-21T10:41:47;31.27;;;17.27;;
22660;SDS011;11497;52.222;21.246;2023-11-21T10:44:16;29.20;;;17.27;;
22660;SDS011;11497;52.222;21.246;2023-11-21T10:46:50;33.13;;;17.98;;
22660;SDS011;11497;52.222;21.246;2023-11-21T10:49:24;23.33;;;14.50;;
22660;SDS011;11497;52.222;21.246;2023-11-21T10:51:54;33.33;;;18.10;;
22660;SDS011;11497;52.222;21.246;2023-11-21T10:54:23;31.02;;;17.10;;
22660;SDS011;11497;52.222;21.246;2023-11-21T10:56:59;45.35;;;21.73;;
22660;SDS011;11497;52.222;21.246;2023-11-21T10:59:28;32.75;;;16.60;;
22660;SDS011;11497;52.222;21.246;2023-11-21T11:01:58;36.65;;;18.05;;
22660;SDS011;11497;52.222;21.246;2023-11-21T11:04:30;40.53;;;20.50;;
22660;SDS011;11497;52.222;21.246;2023-11-21T11:07:01;39.78;;;18.70;;
22660;SDS011;11497;52.222;21.246;2023-11-21T11:09:32;48.28;;;19.63;;
22660;SDS011;11497;52.222;21.246;2023-11-21T11:12:03;41.25;;;19.52;;
22660;SDS011;11497;52.222;21.246;2023-11-21T11:14:33;34.03;;;17.33;;
22660;SDS011;11497;52.222;21.246;2023-11-21T11:17:01;37.53;;;17.33;;
22660;SDS011;11497;52.222;21.246;2023-11-21T11:19:32;46.05;;;20.30;;
22660;SDS011;11497;52.222;21.246;2023-11-21T11:27:44;42.33;;;21.77;;
22660;SDS011;11497;52.222;21.246;2023-11-21T11:30:23;42.80;;;21.48;;
22660;SDS011;11497;52.222;21.246;2023-11-21T11:36:06;35.03;;;18.60;;
22660;SDS011;11497;52.222;21.246;2023-11-21T11:38:44;32.83;;;18.80;;
22660;SDS011;11497;52.222;21.246;2023-11-21T11:41:13;33.45;;;20.38;;
22660;SDS011;11497;52.222;21.246;2023-11-21T11:44:00;31.75;;;18.27;;
22660;SDS011;11497;52.222;21.246;2023-11-21T11:49:10;30.58;;;18.00;;
22660;SDS011;11497;52.222;21.246;2023-11-21T11:52:31;38.40;;;20.15;;
22660;SDS011;11497;52.222;21.246;2023-11-21T11:54:56;38.08;;;22.55;;
22660;SDS011;11497;52.222;21.246;2023-11-21T11:57:26;34.17;;;20.25;;
22660;SDS011;11497;52.222;21.246;2023-11-21T12:02:50;33.40;;;18.65;;
22660;SDS011;11497;52.222;21.246;2023-11-21T12:05:19;32.42;;;16.38;;
22660;SDS011;11497;52.222;21.246;2023-11-21T12:07:51;31.13;;;17.83;;
22660;SDS011;11497;52.222;21.246;2023-11-21T12:10:21;31.52;;;17.30;;
22660;SDS011;11497;52.222;21.246;2023-11-21T12:12:54;26.73;;;15.27;;
22660;SDS011;11497;52.222;21.246;2023-11-21T12:15:23;33.22;;;18.20;;
22660;SDS011;11497;52.222;21.246;2023-11-21T12:17:52;33.65;;;17.98;;
22660;SDS011;11497;52.222;21.246;2023-11-21T12:20:23;40.00;;;20.40;;
22660;SDS011;11497;52.222;21.246;2023-11-21T12:22:56;45.42;;;24.58;;
22660;SDS011;11497;52.222;21.246;2023-11-21T12:25:28;33.17;;;16.70;;
22660;SDS011;11497;52.222;21.246;2023-11-21T12:28:01;36.28;;;19.60;;
22660;SDS011;11497;52.222;21.246;2023-11-21T12:30:30;39.50;;;19.45;;
22660;SDS011;11497;52.222;21.246;2023-11-21T12:33:02;33.95;;;17.00;;
22660;SDS011;11497;52.222;21.246;2023-11-21T12:35:32;33.35;;;18.92;;
22660;SDS011;11497;52.222;21.246;2023-11-21T12:38:01;35.13;;;18.63;;
22660;SDS011;11497;52.222;21.246;2023-11-21T12:40:32;31.23;;;17.00;;
22660;SDS011;11497;52.222;21.246;2023-11-21T12:43:00;34.60;;;18.35;;
22660;SDS011;11497;52.222;21.246;2023-11-21T12:45:31;29.75;;;16.65;;
22660;SDS011;11497;52.222;21.246;2023-11-21T12:48:00;34.45;;;17.85;;
22660;SDS011;11497;52.222;21.246;2023-11-21T12:50:36;33.90;;;17.48;;
22660;SDS011;11497;52.222;21.246;2023-11-21T12:53:09;37.28;;;18.67;;
22660;SDS011;11497;52.222;21.246;2023-11-21T12:55:43;34.35;;;18.48;;
22660;SDS011;11497;52.222;21.246;2023-11-21T12:58:17;49.38;;;26.30;;
22660;SDS011;11497;52.222;21.246;2023-11-21T13:00:47;32.38;;;18.52;;
22660;SDS011;11497;52.222;21.246;2023-11-21T13:03:16;36.05;;;19.35;;
22660;SDS011;11497;52.222;21.246;2023-11-21T13:05:48;31.05;;;16.98;;
22660;SDS011;11497;52.222;21.246;2023-11-21T13:08:21;33.38;;;18.52;;
22660;SDS011;11497;52.222;21.246;2023-11-21T13:10:52;28.05;;;15.88;;
22660;SDS011;11497;52.222;21.246;2023-11-21T13:13:25;29.08;;;17.15;;
22660;SDS011;11497;52.222;21.246;2023-11-21T13:15:59;33.17;;;17.70;;
22660;SDS011;11497;52.222;21.246;2023-11-21T13:18:31;33.15;;;17.63;;
22660;SDS011;11497;52.222;21.246;2023-11-21T13:21:01;30.40;;;17.75;;
22660;SDS011;11497;52.222;21.246;2023-11-21T13:23:41;32.72;;;18.10;;
22660;SDS011;11497;52.222;21.246;2023-11-21T13:26:13;32.92;;;18.02;;
22660;SDS011;11497;52.222;21.246;2023-11-21T13:28:42;35.90;;;19.58;;
22660;SDS011;11497;52.222;21.246;2023-11-21T13:31:14;33.83;;;18.92;;
22660;SDS011;11497;52.222;21.246;2023-11-21T13:33:50;34.80;;;19.75;;
22660;SDS011;11497;52.222;21.246;2023-11-21T13:36:23;34.00;;;18.57;;
22660;SDS011;11497;52.222;21.246;2023-11-21T13:38:52;33.30;;;18.17;;
22660;SDS011;11497;52.222;21.246;2023-11-21T13:41:20;37.20;;;18.73;;
22660;SDS011;11497;52.222;21.246;2023-11-21T13:43:58;34.10;;;19.80;;
22660;SDS011;11497;52.222;21.246;2023-11-21T13:46:56;36.15;;;20.77;;
22660;SDS011;11497;52.222;21.246;2023-11-21T13:49:25;39.33;;;19.77;;
22660;SDS011;11497;52.222;21.246;2023-11-21T13:51:53;46.08;;;25.48;;
22660;SDS011;11497;52.222;21.246;2023-11-21T13:54:22;40.25;;;21.38;;
22660;SDS011;11497;52.222;21.246;2023-11-21T13:56:52;37.97;;;20.88;;
22660;SDS011;11497;52.222;21.246;2023-11-21T13:59:22;36.83;;;19.80;;
22660;SDS011;11497;52.222;21.246;2023-11-21T14:01:52;37.67;;;19.45;;
22660;SDS011;11497;52.222;21.246;2023-11-21T14:04:24;32.13;;;18.48;;
22660;SDS011;11497;52.222;21.246;2023-11-21T14:06:58;32.92;;;18.17;;
22660;SDS011;11497;52.222;21.246;2023-11-21T14:09:37;36.22;;;19.67;;
22660;SDS011;11497;52.222;21.246;2023-11-21T14:12:11;36.85;;;20.77;;
22660;SDS011;11497;52.222;21.246;2023-11-21T14:14:40;38.22;;;20.85;;
22660;SDS011;11497;52.222;21.246;2023-11-21T14:17:08;31.88;;;18.67;;
22660;SDS011;11497;52.222;21.246;2023-11-21T14:19:37;36.83;;;19.27;;
22660;SDS011;11497;52.222;21.246;2023-11-21T14:22:10;38.37;;;20.97;;
22660;SDS011;11497;52.222;21.246;2023-11-21T14:24:39;38.30;;;19.33;;
22660;SDS011;11497;52.222;21.246;2023-11-21T14:27:14;39.65;;;21.02;;
22660;SDS011;11497;52.222;21.246;2023-11-21T14:29:42;39.60;;;20.52;;
22660;SDS011;11497;52.222;21.246;2023-11-21T14:32:11;37.47;;;20.83;;
22660;SDS011;11497;52.222;21.246;2023-11-21T14:34:41;38.50;;;21.25;;
22660;SDS011;11497;52.222;21.246;2023-11-21T14:37:13;39.17;;;19.83;;